Time;durP1;ratioP1;P1;durP2;ratioP2;P2;SDS_P1;SDS_P2;PMS_P1;PMS_P2;Temp;Humidity;BMP_temperature;BMP_pressure;BME280_temperature;BME280_humidity;BME280_pressure;Samples;Min_cycle;Max_cycle;Signal;HPM_P1;HPM_P2
2023/02/22 00:00:21;;;;;;;3.97;2.40;;;;;;;;;;5053654;28;20444;-68
2023/02/22 00:02:49;;;;;;;4.70;2.47;;;;;;;;;;5053001;28;20433;-68
2023/02/22 00:05:18;;;;;;;3.37;2.40;;;;;;;;;;5053724;28;20980;-68
2023/02/22 00:07:46;;;;;;;4.87;1.80;;;;;;;;;;5053386;28;20458;-68
2023/02/22 00:10:14;;;;;;;3.93;2.47;;;;;;;;;;5053004;28;20485;-68
2023/02/22 00:12:42;;;;;;;4.27;2.20;;;;;;;;;;5053865;28;20486;-67
2023/02/22 00:15:13;;;;;;;3.60;2.80;;;;;;;;;;5053719;28;21001;-68
2023/02/22 00:17:40;;;;;;;5.73;2.43;;;;;;;;;;5053702;28;20504;-68
2023/02/22 00:20:13;;;;;;;6.00;2.47;;;;;;;;;;5053487;28;20500;-68
2023/02/22 00:22:41;;;;;;;5.10;2.33;;;;;;;;;;5053711;28;20438;-68
2023/02/22 00:25:08;;;;;;;3.03;2.83;;;;;;;;;;5053747;28;20446;-68
2023/02/22 00:27:35;;;;;;;2.47;2.27;;;;;;;;;;5053537;28;20449;-68
2023/02/22 00:30:03;;;;;;;3.73;1.93;;;;;;;;;;5052647;28;20440;-68
2023/02/22 00:32:31;;;;;;;1.73;1.30;;;;;;;;;;5052664;28;20485;-68
2023/02/22 00:34:58;;;;;;;6.43;2.60;;;;;;;;;;5053024;28;20473;-69
2023/02/22 00:37:25;;;;;;;3.23;2.40;;;;;;;;;;5053312;28;20465;-67
2023/02/22 00:39:53;;;;;;;6.60;3.30;;;;;;;;;;5052590;28;20453;-67
2023/02/22 00:42:20;;;;;;;2.53;2.33;;;;;;;;;;5052955;28;20442;-67
2023/02/22 00:44:47;;;;;;;2.20;1.60;;;;;;;;;;5052703;28;20514;-67
2023/02/22 00:47:15;;;;;;;4.43;2.37;;;;;;;;;;5052966;28;20452;-67
2023/02/22 00:49:43;;;;;;;3.37;2.60;;;;;;;;;;5053011;28;20446;-66
2023/02/22 00:52:10;;;;;;;3.60;2.40;;;;;;;;;;5052693;28;20488;-67
2023/02/22 00:54:38;;;;;;;3.37;2.40;;;;;;;;;;5053309;28;20511;-67
2023/02/22 00:57:05;;;;;;;2.97;2.37;;;;;;;;;;5052443;28;20538;-67
2023/02/22 00:59:32;;;;;;;3.20;1.80;;;;;;;;;;5053026;28;20451;-67
2023/02/22 01:01:59;;;;;;;5.00;2.37;;;;;;;;;;5038739;28;20826;-67
2023/02/22 01:04:26;;;;;;;2.93;2.00;;;;;;;;;;5052962;28;20438;-67
2023/02/22 01:06:55;;;;;;;4.70;1.80;;;;;;;;;;5051962;28;20949;-67
2023/02/22 01:09:22;;;;;;;4.40;2.20;;;;;;;;;;5052476;28;20484;-67
2023/02/22 01:11:54;;;;;;;4.70;1.87;;;;;;;;;;5051830;28;20442;-67
2023/02/22 01:14:22;;;;;;;6.17;3.13;;;;;;;;;;5052321;28;20500;-67
2023/02/22 01:16:50;;;;;;;4.03;2.37;;;;;;;;;;5051437;28;21008;-67
2023/02/22 01:19:17;;;;;;;3.90;2.37;;;;;;;;;;5051746;28;20501;-67
2023/02/22 01:21:45;;;;;;;2.23;1.47;;;;;;;;;;5051154;28;20446;-66
2023/02/22 01:24:15;;;;;;;2.23;1.53;;;;;;;;;;5052244;28;20538;-67
2023/02/22 01:26:42;;;;;;;8.13;2.47;;;;;;;;;;5051988;28;20794;-66
2023/02/22 01:29:13;;;;;;;2.93;1.57;;;;;;;;;;5052142;28;20469;-67
2023/02/22 01:31:42;;;;;;;2.97;2.33;;;;;;;;;;5051829;28;20460;-67
2023/02/22 01:34:09;;;;;;;3.53;2.20;;;;;;;;;;5052295;28;20493;-67
2023/02/22 01:36:37;;;;;;;8.03;2.30;;;;;;;;;;5052136;28;20451;-67
2023/02/22 01:39:04;;;;;;;2.63;1.63;;;;;;;;;;5051250;28;20438;-67
2023/02/22 01:41:33;;;;;;;2.13;1.30;;;;;;;;;;5051681;28;20440;-67
2023/02/22 01:44:15;;;;;;;2.30;2.10;;;;;;;;;;5051349;28;20444;-67
2023/02/22 01:46:42;;;;;;;4.30;2.30;;;;;;;;;;5051496;28;20448;-66
2023/02/22 01:49:09;;;;;;;4.37;2.40;;;;;;;;;;5052063;28;20449;-67
2023/02/22 01:51:38;;;;;;;3.47;1.67;;;;;;;;;;5051734;28;20547;-67
2023/02/22 01:54:07;;;;;;;1.80;1.53;;;;;;;;;;5051370;28;20576;-67
2023/02/22 01:56:38;;;;;;;12.73;2.03;;;;;;;;;;5051927;28;20457;-67
2023/02/22 01:59:06;;;;;;;3.87;2.00;;;;;;;;;;5051300;28;20445;-67
2023/02/22 02:01:34;;;;;;;1.83;1.60;;;;;;;;;;5050542;28;20442;-67
2023/02/22 02:04:04;;;;;;;6.80;2.50;;;;;;;;;;5050795;28;20919;-67
2023/02/22 02:06:32;;;;;;;3.77;1.90;;;;;;;;;;5051830;28;20445;-67
2023/02/22 02:09:02;;;;;;;2.60;2.10;;;;;;;;;;5050901;28;20480;-67
2023/02/22 02:11:29;;;;;;;7.40;2.20;;;;;;;;;;5050878;28;20453;-67
2023/02/22 02:13:58;;;;;;;2.20;1.57;;;;;;;;;;5050905;28;20474;-67
2023/02/22 02:16:26;;;;;;;4.50;2.40;;;;;;;;;;5051454;28;20469;-67
2023/02/22 02:18:54;;;;;;;2.90;1.83;;;;;;;;;;5050561;28;20507;-67
2023/02/22 02:21:42;;;;;;;3.97;2.00;;;;;;;;;;5050873;28;20442;-67
2023/02/22 02:24:27;;;;;;;3.20;2.13;;;;;;;;;;5051176;28;20457;-68
2023/02/22 02:27:02;;;;;;;1.50;1.20;;;;;;;;;;5050378;28;20436;-67
2023/02/22 02:29:47;;;;;;;5.17;1.90;;;;;;;;;;5050823;28;20985;-67
2023/02/22 02:32:28;;;;;;;2.97;2.07;;;;;;;;;;5049635;28;20803;-67
2023/02/22 02:34:59;;;;;;;2.40;1.90;;;;;;;;;;5050415;28;20438;-67
2023/02/22 02:37:29;;;;;;;2.67;1.80;;;;;;;;;;5048805;28;20461;-67
2023/02/22 02:39:59;;;;;;;7.60;4.57;;;;;;;;;;5050143;28;20453;-67
2023/02/22 02:42:31;;;;;;;2.80;2.60;;;;;;;;;;5051082;28;20446;-67
2023/02/22 02:45:01;;;;;;;2.90;1.77;;;;;;;;;;5049916;28;20447;-67
2023/02/22 02:47:33;;;;;;;2.77;1.37;;;;;;;;;;5038006;28;20439;-67
2023/02/22 02:50:02;;;;;;;1.70;1.30;;;;;;;;;;5049801;28;20484;-67
2023/02/22 02:52:30;;;;;;;4.60;1.77;;;;;;;;;;5050714;28;20445;-67
2023/02/22 02:54:57;;;;;;;5.60;2.50;;;;;;;;;;5050443;28;20758;-68
2023/02/22 02:57:24;;;;;;;2.43;1.97;;;;;;;;;;5050753;28;20454;-68
2023/02/22 02:59:52;;;;;;;6.20;2.10;;;;;;;;;;5050020;28;20462;-67
2023/02/22 03:02:28;;;;;;;2.23;1.40;;;;;;;;;;5050757;28;20445;-68
2023/02/22 03:05:07;;;;;;;2.80;1.80;;;;;;;;;;5050381;28;20788;-67
2023/02/22 03:07:43;;;;;;;2.30;1.97;;;;;;;;;;5050626;28;20454;-68
2023/02/22 03:10:17;;;;;;;3.53;2.20;;;;;;;;;;5050190;28;20489;-69
2023/02/22 03:12:48;;;;;;;6.47;2.83;;;;;;;;;;5052906;28;20813;-67
2023/02/22 03:15:20;;;;;;;2.67;1.63;;;;;;;;;;5055070;28;20429;-68
2023/02/22 03:17:51;;;;;;;2.03;1.60;;;;;;;;;;5054158;28;20444;-68
2023/02/22 03:20:24;;;;;;;2.70;1.90;;;;;;;;;;5054189;28;20445;-68
2023/02/22 03:22:59;;;;;;;3.43;1.70;;;;;;;;;;5053899;28;20946;-68
2023/02/22 03:25:31;;;;;;;2.90;2.30;;;;;;;;;;5054798;28;20525;-67
2023/02/22 03:28:01;;;;;;;3.60;2.03;;;;;;;;;;5054233;28;20560;-68
2023/02/22 03:30:32;;;;;;;4.27;2.07;;;;;;;;;;5054206;28;20476;-67
2023/02/22 03:33:01;;;;;;;3.70;2.23;;;;;;;;;;5053901;28;20541;-67
2023/02/22 03:35:32;;;;;;;2.90;1.77;;;;;;;;;;5054484;28;20438;-67
2023/02/22 03:38:02;;;;;;;2.47;1.90;;;;;;;;;;5053594;28;20445;-68
2023/02/22 03:40:31;;;;;;;4.70;3.13;;;;;;;;;;5054152;28;20442;-67
2023/02/22 03:43:02;;;;;;;2.10;1.90;;;;;;;;;;5053643;28;20451;-67
2023/02/22 03:45:29;;;;;;;4.27;1.83;;;;;;;;;;5053933;28;20434;-68
2023/02/22 03:48:02;;;;;;;3.40;2.67;;;;;;;;;;5053065;28;20907;-67
2023/02/22 03:50:34;;;;;;;8.23;3.20;;;;;;;;;;5053839;28;20438;-67
2023/02/22 03:53:01;;;;;;;3.83;1.57;;;;;;;;;;5053628;28;20519;-67
2023/02/22 03:55:30;;;;;;;5.03;2.47;;;;;;;;;;5054007;28;20438;-68
2023/02/22 03:57:58;;;;;;;3.70;2.90;;;;;;;;;;5053342;28;20537;-67
2023/02/22 04:00:26;;;;;;;3.73;2.50;;;;;;;;;;5040472;28;20443;-67
2023/02/22 04:02:53;;;;;;;4.10;3.63;;;;;;;;;;5053277;28;20449;-67
2023/02/22 04:05:21;;;;;;;4.40;2.70;;;;;;;;;;5053734;28;20452;-67
2023/02/22 04:07:49;;;;;;;3.80;2.83;;;;;;;;;;5053252;28;20445;-67
2023/02/22 04:10:17;;;;;;;4.53;3.03;;;;;;;;;;5053506;28;20472;-67
2023/02/22 04:12:44;;;;;;;5.00;3.30;;;;;;;;;;5052806;28;20892;-67
2023/02/22 04:15:13;;;;;;;5.63;2.90;;;;;;;;;;5053962;28;20442;-67
2023/02/22 04:17:40;;;;;;;6.10;2.57;;;;;;;;;;5053316;28;20534;-67
2023/02/22 04:20:08;;;;;;;2.17;1.77;;;;;;;;;;5053170;28;20934;-68
2023/02/22 04:22:35;;;;;;;2.97;2.33;;;;;;;;;;5053392;28;20488;-67
2023/02/22 04:25:03;;;;;;;6.00;3.33;;;;;;;;;;5052476;28;20944;-68
2023/02/22 04:27:30;;;;;;;2.33;1.77;;;;;;;;;;5053206;28;20445;-67
2023/02/22 04:29:57;;;;;;;4.70;2.80;;;;;;;;;;5052650;28;20442;-67
2023/02/22 04:32:24;;;;;;;4.40;2.90;;;;;;;;;;5052896;28;20918;-67
2023/02/22 04:34:52;;;;;;;6.63;2.57;;;;;;;;;;5053033;28;20500;-67
2023/02/22 04:37:19;;;;;;;6.27;2.77;;;;;;;;;;5053271;28;20458;-67
2023/02/22 04:39:46;;;;;;;3.40;2.57;;;;;;;;;;5052177;28;20943;-67
2023/02/22 04:42:14;;;;;;;5.27;2.80;;;;;;;;;;5053142;28;20449;-67
2023/02/22 04:44:41;;;;;;;4.50;3.07;;;;;;;;;;5053152;28;20453;-68
2023/02/22 04:47:08;;;;;;;2.83;2.10;;;;;;;;;;5053279;28;20438;-67
2023/02/22 04:49:35;;;;;;;4.27;2.70;;;;;;;;;;5052743;28;20933;-67
2023/02/22 04:52:03;;;;;;;4.13;2.73;;;;;;;;;;5051929;28;20453;-67
2023/02/22 04:54:30;;;;;;;6.13;2.57;;;;;;;;;;5052850;28;20492;-67
2023/02/22 04:56:57;;;;;;;4.20;2.60;;;;;;;;;;5052137;28;20443;-68
2023/02/22 04:59:26;;;;;;;4.67;2.67;;;;;;;;;;5053023;28;20481;-69
2023/02/22 05:01:53;;;;;;;4.90;3.63;;;;;;;;;;5051684;28;20443;-68
2023/02/22 05:04:20;;;;;;;3.43;2.27;;;;;;;;;;5052876;28;20439;-68
2023/02/22 05:06:47;;;;;;;7.00;3.57;;;;;;;;;;5052032;28;20460;-68
2023/02/22 05:09:15;;;;;;;6.10;3.30;;;;;;;;;;5052404;28;20477;-67
2023/02/22 05:11:42;;;;;;;4.23;2.17;;;;;;;;;;5052085;28;20789;-67
2023/02/22 05:14:09;;;;;;;5.10;2.30;;;;;;;;;;5052319;28;20488;-68
2023/02/22 05:16:38;;;;;;;8.80;3.27;;;;;;;;;;5043470;28;20437;-67
2023/02/22 05:19:05;;;;;;;6.93;3.73;;;;;;;;;;5052035;28;20437;-68
2023/02/22 05:21:32;;;;;;;4.10;3.33;;;;;;;;;;5052319;28;20472;-68
2023/02/22 05:24:00;;;;;;;4.57;4.17;;;;;;;;;;5051803;28;20449;-68
2023/02/22 05:26:27;;;;;;;3.97;3.63;;;;;;;;;;5052576;28;20770;-68
2023/02/22 05:28:54;;;;;;;11.00;3.93;;;;;;;;;;5051252;28;20809;-67
2023/02/22 05:31:21;;;;;;;4.67;2.50;;;;;;;;;;5051851;28;20464;-68
2023/02/22 05:33:49;;;;;;;2.97;2.27;;;;;;;;;;5052372;28;20477;-67
2023/02/22 05:36:17;;;;;;;4.80;2.80;;;;;;;;;;5051204;28;20442;-68
2023/02/22 05:38:44;;;;;;;5.97;2.57;;;;;;;;;;5051640;28;20845;-67
2023/02/22 05:41:12;;;;;;;4.57;3.40;;;;;;;;;;5051982;28;20450;-68
2023/02/22 05:43:39;;;;;;;5.73;3.97;;;;;;;;;;5051881;28;20457;-67
2023/02/22 05:46:06;;;;;;;5.63;3.37;;;;;;;;;;5051389;28;20445;-68
2023/02/22 05:48:33;;;;;;;6.73;3.33;;;;;;;;;;5051545;28;20457;-68
2023/02/22 05:51:02;;;;;;;4.90;3.63;;;;;;;;;;5051102;28;20446;-68
2023/02/22 05:53:29;;;;;;;4.47;2.53;;;;;;;;;;5051825;28;20446;-68
2023/02/22 05:55:57;;;;;;;5.03;3.47;;;;;;;;;;5050668;28;20440;-69
2023/02/22 05:58:24;;;;;;;8.60;6.50;;;;;;;;;;5050989;28;20449;-70
2023/02/22 06:00:51;;;;;;;12.27;5.70;;;;;;;;;;5050913;28;20752;-70
2023/02/22 06:03:18;;;;;;;5.53;3.50;;;;;;;;;;5051459;28;20808;-70
2023/02/22 06:05:45;;;;;;;2.87;2.30;;;;;;;;;;5051215;28;20440;-70
2023/02/22 06:08:13;;;;;;;5.23;2.83;;;;;;;;;;5050716;28;20820;-69
2023/02/22 06:10:41;;;;;;;5.43;3.63;;;;;;;;;;5051502;28;20435;-70
2023/02/22 06:13:08;;;;;;;7.07;3.40;;;;;;;;;;5051087;28;20925;-70
2023/02/22 06:15:35;;;;;;;6.20;2.90;;;;;;;;;;5051360;28;20545;-70
2023/02/22 06:18:02;;;;;;;10.50;4.27;;;;;;;;;;5050488;28;21263;-70
2023/02/22 06:20:30;;;;;;;6.60;3.30;;;;;;;;;;5050665;28;20443;-70
2023/02/22 06:22:57;;;;;;;3.30;2.83;;;;;;;;;;5049788;28;20435;-70
2023/02/22 06:25:27;;;;;;;12.80;11.60;;;;;;;;;;5048216;28;20438;-70
2023/02/22 06:27:54;;;;;;;4.37;3.63;;;;;;;;;;5049855;28;20449;-70
2023/02/22 06:30:22;;;;;;;3.83;3.30;;;;;;;;;;5050175;28;20448;-67
2023/02/22 06:32:49;;;;;;;9.90;4.47;;;;;;;;;;5048974;28;20948;-68
2023/02/22 06:35:16;;;;;;;6.13;2.80;;;;;;;;;;5050127;28;20555;-69
2023/02/22 06:37:44;;;;;;;2.97;2.67;;;;;;;;;;5048831;28;20450;-69
2023/02/22 06:40:11;;;;;;;4.67;3.03;;;;;;;;;;5050211;28;20447;-69
2023/02/22 06:42:40;;;;;;;6.10;3.47;;;;;;;;;;5050801;28;20453;-70
2023/02/22 06:45:08;;;;;;;4.30;3.40;;;;;;;;;;5050280;28;20447;-69
2023/02/22 06:47:38;;;;;;;4.27;3.60;;;;;;;;;;5050408;28;20442;-69
2023/02/22 06:50:05;;;;;;;3.20;2.87;;;;;;;;;;5049533;28;20442;-69
2023/02/22 06:52:32;;;;;;;7.17;3.00;;;;;;;;;;5050716;28;20457;-69
2023/02/22 06:54:59;;;;;;;5.80;2.93;;;;;;;;;;5049152;28;20473;-70
2023/02/22 06:57:26;;;;;;;7.40;4.60;;;;;;;;;;5050114;28;20449;-69
2023/02/22 06:59:55;;;;;;;4.13;3.13;;;;;;;;;;5048459;28;21565;-68
2023/02/22 07:02:22;;;;;;;4.57;3.20;;;;;;;;;;5049789;28;20446;-68
2023/02/22 07:04:49;;;;;;;5.37;3.50;;;;;;;;;;5049546;28;20455;-69
2023/02/22 07:07:16;;;;;;;26.53;24.40;;;;;;;;;;5050059;28;20562;-68
2023/02/22 07:09:46;;;;;;;6.17;4.30;;;;;;;;;;5048848;28;20489;-68
2023/02/22 07:12:13;;;;;;;7.30;3.70;;;;;;;;;;5050205;28;20446;-67
2023/02/22 07:14:41;;;;;;;5.13;3.13;;;;;;;;;;5049924;28;20481;-67
2023/02/22 07:17:10;;;;;;;5.40;2.93;;;;;;;;;;5049515;28;20452;-69
2023/02/22 07:19:37;;;;;;;4.57;3.57;;;;;;;;;;5050004;28;20531;-68
2023/02/22 07:22:05;;;;;;;12.10;3.33;;;;;;;;;;5049260;28;20462;-68
2023/02/22 07:24:33;;;;;;;2.90;2.60;;;;;;;;;;5048817;28;20458;-67
2023/02/22 07:27:01;;;;;;;5.60;3.50;;;;;;;;;;5049099;28;20434;-68
2023/02/22 07:29:30;;;;;;;4.40;3.83;;;;;;;;;;5049923;28;20477;-68
2023/02/22 07:31:57;;;;;;;9.03;3.80;;;;;;;;;;5049160;28;20546;-68
2023/02/22 07:34:26;;;;;;;3.97;3.07;;;;;;;;;;5050229;28;20478;-68
2023/02/22 07:36:53;;;;;;;5.47;3.77;;;;;;;;;;5049059;28;20452;-68
2023/02/22 07:39:20;;;;;;;6.23;3.27;;;;;;;;;;5049963;28;20442;-68
2023/02/22 07:41:48;;;;;;;4.40;3.03;;;;;;;;;;5048804;28;20438;-67
2023/02/22 07:44:16;;;;;;;3.10;2.77;;;;;;;;;;5048656;28;20449;-67
2023/02/22 07:46:47;;;;;;;4.53;3.80;;;;;;;;;;5049489;28;20801;-67
2023/02/22 07:49:15;;;;;;;4.00;3.03;;;;;;;;;;5050313;28;20439;-68
2023/02/22 07:51:43;;;;;;;2.77;2.43;;;;;;;;;;5049731;28;20443;-67
2023/02/22 07:54:11;;;;;;;6.20;3.33;;;;;;;;;;5049494;28;20447;-68
2023/02/22 07:56:38;;;;;;;4.30;2.97;;;;;;;;;;5050182;28;20442;-68
2023/02/22 07:59:04;;;;;;;6.63;3.93;;;18.20;1.00;;;;;;5049987;28;20453;-68
2023/02/22 08:01:31;;;;;;;3.30;2.37;;;7.40;1.00;;;;;;5052863;28;20899;-68
2023/02/22 08:03:58;;;;;;;5.90;3.17;;;7.30;1.00;;;;;;5053033;28;20446;-68
2023/02/22 08:06:27;;;;;;;4.13;3.73;;;7.40;1.00;;;;;;5053099;28;20931;-68
2023/02/22 08:08:55;;;;;;;4.37;3.30;;;7.40;99.90;;;;;;5053152;28;20475;-69
2023/02/22 08:11:22;;;;;;;4.60;3.77;;;7.50;99.90;;;;;;5052460;28;20465;-68
2023/02/22 08:13:48;;;;;;;6.10;3.50;;;7.60;99.90;;;;;;5052514;28;20445;-69
2023/02/22 08:16:15;;;;;;;10.33;4.43;;;7.60;1.00;;;;;;5052390;28;20466;-68
2023/02/22 08:18:42;;;;;;;8.67;4.57;;;7.70;1.00;;;;;;5051885;28;20450;-67
2023/02/22 08:21:09;;;;;;;7.60;4.33;;;7.80;1.00;;;;;;5052123;28;20954;-67
2023/02/22 08:23:37;;;;;;;6.57;3.80;;;7.80;99.90;;;;;;5052832;28;20435;-67
2023/02/22 08:26:07;;;;;;;5.50;4.37;;;8.00;1.00;;;;;;5052362;28;20454;-69
2023/02/22 08:28:34;;;;;;;6.70;5.33;;;8.00;1.00;;;;;;5053310;28;20450;-68
2023/02/22 08:31:01;;;;;;;6.43;4.57;;;8.10;1.00;;;;;;5051214;28;20455;-67
2023/02/22 08:33:27;;;;;;;6.90;4.33;;;8.20;1.00;;;;;;5052713;28;20442;-67
2023/02/22 08:35:54;;;;;;;6.77;4.57;;;8.20;1.00;;;;;;5052094;28;20470;-67
2023/02/22 08:38:24;;;;;;;6.80;4.70;;;8.30;22.00;;;;;;5052959;28;20669;-67
2023/02/22 08:40:51;;;;;;;6.50;4.23;;;8.30;1.00;;;;;;5052078;28;20438;-69
2023/02/22 08:43:21;;;;;;;15.53;6.00;;;8.40;1.00;;;;;;5052108;28;20951;-76
2023/02/22 08:45:48;;;;;;;13.10;4.80;;;8.40;1.00;;;;;;5051490;28;20454;-71
2023/02/22 08:48:16;;;;;;;6.63;4.43;;;8.50;1.00;;;;;;5052915;28;20449;-72
2023/02/22 08:50:43;;;;;;;7.20;4.83;;;8.60;1.00;;;;;;5050630;28;20496;-70
2023/02/22 08:53:12;;;;;;;8.23;4.60;;;8.60;1.00;;;;;;5051326;28;20442;-71
2023/02/22 08:55:40;;;;;;;4.67;3.70;;;8.70;99.90;;;;;;5052438;28;20557;-71
2023/02/22 08:58:09;;;;;;;7.80;4.60;;;9.00;99.90;;;;;;5052253;28;20438;-71
2023/02/22 09:00:38;;;;;;;12.37;4.80;;;;;;;;;;5051656;28;20844;-72
2023/02/22 09:03:05;;;;;;;9.07;4.10;;;;;;;;;;5051609;28;20928;-68
2023/02/22 09:05:33;;;;;;;7.03;4.90;;;;;;;;;;5052552;28;20473;-72
2023/02/22 09:08:00;;;;;;;7.53;4.80;;;;;;;;;;5051956;28;20863;-72
2023/02/22 09:10:29;;;;;;;6.70;4.40;;;;;;;;;;5051630;28;20527;-71
2023/02/22 09:12:56;;;;;;;8.47;4.73;;;;;;;;;;5051574;28;20443;-72
2023/02/22 09:15:23;;;;;;;6.40;5.80;;;;;;;;;;5052459;28;20478;-72
2023/02/22 09:17:52;;;;;;;7.03;5.10;;;;;;;;;;5051613;28;20454;-71
2023/02/22 09:20:20;;;;;;;5.90;5.00;;;;;;;;;;5051435;28;20965;-72
2023/02/22 09:22:48;;;;;;;6.17;4.40;;;9.30;99.90;;;;;;5051132;28;20441;-71
2023/02/22 09:25:16;;;;;;;6.33;4.10;;;9.70;1.00;;;;;;5051145;28;20449;-73
2023/02/22 09:27:43;;;;;;;6.80;5.43;;;9.80;1.00;;;;;;5051092;28;20457;-71
2023/02/22 09:30:17;;;;;;;7.60;4.93;;;9.90;1.00;;;;;;5051680;28;20442;-72
2023/02/22 09:32:43;;;;;;;9.47;5.47;;;9.90;1.00;;;;;;5051173;28;20947;-72
2023/02/22 09:35:12;;;;;;;6.70;4.57;;;10.00;1.00;;;;;;5052042;28;20574;-72
2023/02/22 09:37:38;;;;;;;11.70;6.13;;;10.10;1.00;;;;;;5051842;28;20442;-71
2023/02/22 09:40:09;;;;;;;10.50;5.83;;;10.20;1.00;;;;;;5051176;28;20441;-72
2023/02/22 09:42:44;;;;;;;10.87;5.40;;;10.30;1.00;;;;;;5051893;28;20488;-71
2023/02/22 09:45:15;;;;;;;5.13;4.43;;;;;;;;;;5052123;28;20457;-71
2023/02/22 09:47:45;;;;;;;6.80;5.40;;;;;;;;;;5051430;28;20450;-68
2023/02/22 09:50:15;;;;;;;7.30;4.60;;;;;;;;;;5051373;28;20454;-70
2023/02/22 09:52:52;;;;;;;11.70;4.80;;;;;;;;;;5051056;28;20443;-68
2023/02/22 09:55:27;;;;;;;8.87;5.43;;;;;;;;;;5051756;28;20557;-71
2023/02/22 09:57:57;;;;;;;6.13;4.90;;;;;;;;;;5051077;28;20536;-71
2023/02/22 10:00:31;;;;;;;8.50;4.57;;;;;;;;;;5050036;28;20451;-70
2023/02/22 10:03:01;;;;;;;7.97;6.10;;;;;;;;;;5049589;28;20445;-71
2023/02/22 10:05:32;;;;;;;7.80;4.53;;;;;;;;;;5051455;28;20446;-70
2023/02/22 10:08:04;;;;;;;6.07;4.50;;;;;;;;;;5050640;28;20462;-71
2023/02/22 10:10:33;;;;;;;5.40;4.50;;;;;;;;;;5050540;28;20496;-71
2023/02/22 10:13:01;;;;;;;5.90;3.80;;;;;;;;;;5049704;28;20454;-71
2023/02/22 10:15:34;;;;;;;5.23;3.77;;;;;;;;;;5049700;28;20470;-70
2023/02/22 10:18:05;;;;;;;5.90;3.83;;;;;;;;;;5049220;28;20500;-71
2023/02/22 10:20:43;;;;;;;5.27;3.63;;;;;;;;;;5050916;28;20873;-71
2023/02/22 10:23:13;;;;;;;6.30;4.23;;;;;;;;;;5050911;28;20805;-71
2023/02/22 10:25:43;;;;;;;6.60;3.93;;;;;;;;;;5050443;28;20805;-71
2023/02/22 10:28:14;;;;;;;6.60;4.40;;;;;;;;;;5050753;28;20802;-71
2023/02/22 10:30:42;;;;;;;4.10;3.70;;;;;;;;;;5048998;28;20443;-71
2023/02/22 10:33:11;;;;;;;6.73;3.90;;;;;;;;;;5050150;28;20455;-71
2023/02/22 10:35:40;;;;;;;5.70;3.70;;;;;;;;;;5050473;28;20475;-72
2023/02/22 10:38:15;;;;;;;5.00;3.97;;;;;;;;;;5041508;28;20911;-71
2023/02/22 10:40:44;;;;;;;8.97;4.17;;;;;;;;;;5049437;28;20442;-69
2023/02/22 10:43:11;;;;;;;7.40;4.10;;;;;;;;;;5050750;28;20462;-72
2023/02/22 10:45:38;;;;;;;6.33;3.93;;;;;;;;;;5050429;28;20451;-71
2023/02/22 10:48:10;;;;;;;8.13;4.50;;;;;;;;;;5049771;28;20465;-72
2023/02/22 10:50:39;;;;;;;7.03;4.43;;;;;;;;;;5050037;28;20446;-71
2023/02/22 10:53:08;;;;;;;6.87;3.50;;;;;;;;;;5049298;28;20451;-71
2023/02/22 10:55:36;;;;;;;7.37;4.03;;;;;;;;;;5050312;28;20482;-71
2023/02/22 10:58:05;;;;;;;5.67;4.50;;;;;;;;;;5048771;28;20695;-71
2023/02/22 11:00:36;;;;;;;8.00;3.70;;;;;;;;;;5049897;28;20593;-71
2023/02/22 11:03:04;;;;;;;11.03;4.80;;;;;;;;;;5048380;28;20943;-72
2023/02/22 11:05:35;;;;;;;7.43;4.17;;;;;;;;;;5050071;28;20446;-72
2023/02/22 11:08:31;;;;;;;7.70;4.37;;;;;;;;;;5049226;28;20492;-72
2023/02/22 11:11:02;;;;;;;7.23;4.80;;;;;;;;;;5024916;28;20812;-72
2023/02/22 11:13:30;;;;;;;7.97;4.50;;;;;;;;;;5049605;28;21033;-72
2023/02/22 11:16:00;;;;;;;5.20;4.10;;;;;;;;;;5049567;28;20783;-72
2023/02/22 11:18:28;;;;;;;4.07;3.43;;;;;;;;;;5050367;28;20442;-72
2023/02/22 11:21:02;;;;;;;6.13;4.03;;;;;;;;;;5048708;28;20446;-72
2023/02/22 11:23:30;;;;;;;7.33;4.90;;;;;;;;;;5049408;28;21012;-72
2023/02/22 11:26:04;;;;;;;6.40;4.23;;;;;;;;;;5048771;28;20454;-72
2023/02/22 11:28:32;;;;;;;10.00;5.27;;;;;;;;;;5049681;28;20453;-71
2023/02/22 11:31:00;;;;;;;5.10;4.17;;;;;;;;;;5048624;28;20822;-72
2023/02/22 11:33:28;;;;;;;14.30;4.80;;;;;;;;;;5049222;28;20442;-71
2023/02/22 11:35:56;;;;;;;10.57;5.10;;;;;;;;;;5052552;28;20631;-72
2023/02/22 11:38:23;;;;;;;7.50;5.03;;;;;;;;;;5053120;28;20462;-72
2023/02/22 11:41:08;;;;;;;5.10;4.33;;;;;;;;;;5052773;28;20442;-72
2023/02/22 11:43:35;;;;;;;8.67;4.50;;;;;;;;;;5053650;28;20448;-72
2023/02/22 11:46:04;;;;;;;6.80;5.40;;;;;;;;;;5053434;28;20735;-72
2023/02/22 11:48:33;;;;;;;8.03;4.60;;;;;;;;;;5053121;28;20450;-72
2023/02/22 11:51:11;;;;;;;5.57;4.37;;;;;;;;;;5049576;28;20450;-72
2023/02/22 11:53:45;;;;;;;9.90;4.47;;;;;;;;;;5052309;28;20477;-72
2023/02/22 11:56:19;;;;;;;7.83;5.00;;;;;;;;;;5050444;28;20962;-72
2023/02/22 11:58:48;;;;;;;8.97;6.00;;;;;;;;;;5049448;28;20446;-72
2023/02/22 12:01:20;;;;;;;7.57;4.27;;;;;;;;;;5050442;28;20453;-72
2023/02/22 12:04:08;;;;;;;8.33;4.53;;;;;;;;;;5050589;28;20473;-72
2023/02/22 12:06:41;;;;;;;5.67;4.20;;;;;;;;;;5025442;28;20485;-72
2023/02/22 12:09:13;;;;;;;8.07;4.70;;;;;;;;;;5049763;28;20485;-72
2023/02/22 12:11:47;;;;;;;9.80;5.37;;;;;;;;;;5051472;28;20441;-72
2023/02/22 12:14:22;;;;;;;8.57;4.50;;;;;;;;;;5048323;28;20445;-72
2023/02/22 12:17:00;;;;;;;10.90;5.10;;;;;;;;;;5050220;28;20477;-72
2023/02/22 12:19:31;;;;;;;6.17;4.70;;;;;;;;;;5049983;28;20488;-72
2023/02/22 12:22:01;;;;;;;9.97;4.70;;;;;;;;;;5049896;28;20450;-72
2023/02/22 12:24:32;;;;;;;13.03;5.33;;;;;;;;;;5048791;28;20884;-72
2023/02/22 12:27:03;;;;;;;8.33;4.93;;;;;;;;;;5050059;28;20458;-72
2023/02/22 12:29:36;;;;;;;6.10;4.13;;;;;;;;;;5049514;28;20446;-72
2023/02/22 12:32:05;;;;;;;9.20;4.33;;;;;;;;;;5049770;28;21032;-72
2023/02/22 12:34:36;;;;;;;7.43;4.80;;;;;;;;;;5050353;28;20457;-72
2023/02/22 12:37:06;;;;;;;8.27;4.27;;;;;;;;;;5050165;28;20516;-72
2023/02/22 12:39:38;;;;;;;8.17;4.73;;;;;;;;;;5050023;28;20794;-72
2023/02/22 12:42:12;;;;;;;8.30;4.90;;;;;;;;;;5049413;28;20853;-72
2023/02/22 12:44:42;;;;;;;9.60;5.03;;;;;;;;;;5049370;28;20854;-72
2023/02/22 12:47:15;;;;;;;7.70;4.40;;;;;;;;;;5050710;28;20450;-72
2023/02/22 12:49:45;;;;;;;7.17;4.70;;;;;;;;;;5048917;28;20477;-74
2023/02/22 12:52:15;;;;;;;7.93;4.97;;;;;;;;;;5039946;28;20458;-72
2023/02/22 12:54:46;;;;;;;7.77;4.70;;;;;;;;;;5049646;28;20488;-74
2023/02/22 12:57:19;;;;;;;8.47;5.83;;;;;;;;;;5050034;28;20561;-72
2023/02/22 12:59:49;;;;;;;7.90;4.90;;;;;;;;;;5049251;28;20462;-72
2023/02/22 13:02:19;;;;;;;8.70;5.27;;;;;;;;;;5049792;28;20447;-72
2023/02/22 13:04:46;;;;;;;5.67;4.13;;;;;;;;;;5049110;28;20473;-73
2023/02/22 13:07:19;;;;;;;12.60;5.07;;;;;;;;;;5049802;28;20454;-73
2023/02/22 13:09:52;;;;;;;9.50;5.20;;;;;;;;;;5049020;28;20847;-72
2023/02/22 13:12:24;;;;;;;4.93;3.73;;;;;;;;;;5050095;28;20481;-72
2023/02/22 13:14:56;;;;;;;6.90;4.70;;;;;;;;;;5047276;28;20476;-73
2023/02/22 13:17:27;;;;;;;6.90;4.80;;;;;;;;;;5050296;28;20471;-72
2023/02/22 13:19:57;;;;;;;9.50;5.47;;;;;;;;;;5047948;28;20447;-73
2023/02/22 13:22:26;;;;;;;7.13;5.33;;;;;;;;;;5049348;28;20457;-73
2023/02/22 13:24:58;;;;;;;8.73;4.80;;;;;;;;;;5048509;28;20974;-72
2023/02/22 13:27:31;;;;;;;8.40;4.80;;;;;;;;;;5049858;28;20454;-72
2023/02/22 13:30:00;;;;;;;5.60;4.80;;;;;;;;;;5048828;28;20453;-72
2023/02/22 13:32:42;;;;;;;6.90;4.63;;;;;;;;;;5048836;28;21058;-71
2023/02/22 13:35:17;;;;;;;9.83;5.40;;;;;;;;;;5048373;28;20489;-72
2023/02/22 13:37:52;;;;;;;8.20;4.70;;;;;;;;;;5048232;28;20501;-70
2023/02/22 13:40:47;;;;;;;10.07;5.67;;;;;;;;;;5048764;28;20449;-73
2023/02/22 13:43:25;;;;;;;8.50;5.40;;;;;;;;;;5048658;28;20920;-72
2023/02/22 13:46:03;;;;;;;6.40;4.93;;;;;;;;;;5047608;28;20446;-72
2023/02/22 13:48:45;;;;;;;7.53;4.70;;;;;;;;;;5045770;28;20533;-72
2023/02/22 13:51:15;;;;;;;5.53;4.20;;;;;;;;;;5031379;28;20446;-72
2023/02/22 13:53:44;;;;;;;5.63;4.43;;;;;;;;;;5048604;28;20453;-72
2023/02/22 13:56:14;;;;;;;7.40;5.93;;;;;;;;;;5047757;28;20482;-72
2023/02/22 13:58:49;;;;;;;9.73;6.00;;;;;;;;;;5048396;28;20442;-72
2023/02/22 14:01:31;;;;;;;8.10;5.27;;;;;;;;;;5048314;28;20446;-72
2023/02/22 14:04:19;;;;;;;7.70;5.30;;;;;;;;;;5047922;28;20528;-73
2023/02/22 14:06:46;;;;;;;6.83;5.43;;;;;;;;;;5047669;28;20461;-72
2023/02/22 14:09:18;;;;;;;7.27;5.90;;;;;;;;;;5047571;28;20478;-72
2023/02/22 14:11:46;;;;;;;6.67;5.17;;;;;;;;;;5041466;28;20449;-72
2023/02/22 14:14:18;;;;;;;7.60;4.70;;;;;;;;;;5046836;28;20557;-73
2023/02/22 14:16:45;;;;;;;9.90;5.03;;;;;;;;;;5047966;28;20497;-72
2023/02/22 14:19:19;;;;;;;9.53;5.70;;;;;;;;;;5047062;28;20442;-72
2023/02/22 14:22:00;;;;;;;7.30;4.93;;;;;;;;;;5047152;28;20450;-72
2023/02/22 14:24:28;;;;;;;7.13;5.23;;;;;;;;;;5048075;28;20508;-71
2023/02/22 14:26:57;;;;;;;9.13;5.47;;;;;;;;;;5048146;28;20461;-72
2023/02/22 14:29:25;;;;;;;5.67;3.83;;;;;;;;;;5046988;28;20457;-72
2023/02/22 14:32:01;;;;;;;5.87;4.50;;;;;;;;;;5047661;28;20446;-72
2023/02/22 14:34:42;;;;;;;6.97;5.43;;;;;;;;;;5048169;28;20516;-72
2023/02/22 14:37:13;;;;;;;6.13;4.43;;;;;;;;;;5047313;28;20497;-72
2023/02/22 14:39:42;;;;;;;8.80;5.30;;;;;;;;;;5047405;28;20465;-72
2023/02/22 14:42:12;;;;;;;6.43;4.60;;;;;;;;;;5048053;28;20454;-72
2023/02/22 14:44:43;;;;;;;7.00;4.23;;;;;;;;;;5048234;28;20450;-73